createdAt,value
2022-10-11T00:01:24.356Z,100.00
2022-10-11T00:03:51.087Z,100.00
2022-10-11T00:06:17.720Z,100.00
2022-10-11T00:08:44.296Z,100.00
2022-10-11T00:11:11.143Z,100.00
2022-10-11T00:13:37.938Z,100.00
2022-10-11T00:16:11.196Z,100.00
2022-10-11T00:18:38.810Z,100.00
2022-10-11T00:21:08.963Z,100.00
2022-10-11T00:23:35.866Z,100.00
2022-10-11T00:26:05.938Z,100.00
2022-10-11T00:28:33.895Z,100.00
2022-10-11T00:31:00.826Z,100.00
2022-10-11T00:33:27.741Z,100.00
2022-10-11T00:35:54.463Z,100.00
2022-10-11T00:38:21.945Z,100.00
2022-10-11T00:40:48.741Z,100.00
2022-10-11T00:43:22.553Z,100.00
2022-10-11T00:45:58.581Z,100.00
2022-10-11T00:48:32.822Z,100.00
2022-10-11T00:51:03.102Z,100.00
2022-10-11T00:53:32.621Z,100.00
2022-10-11T00:56:13.366Z,100.00
2022-10-11T00:58:42.242Z,100.00
2022-10-11T01:01:09.084Z,100.00
2022-10-11T01:03:38.250Z,100.00
2022-10-11T01:06:08.589Z,100.00
2022-10-11T01:08:36.186Z,100.00
2022-10-11T01:11:03.222Z,100.00
2022-10-11T01:13:41.763Z,100.00
2022-10-11T01:16:14.099Z,100.00
2022-10-11T01:18:45.735Z,100.00
2022-10-11T01:21:37.017Z,100.00
2022-10-11T01:24:22.518Z,100.00
2022-10-11T01:26:58.160Z,100.00
2022-10-11T01:29:53.314Z,100.00
2022-10-11T01:32:47.723Z,100.00
2022-10-11T01:35:35.515Z,100.00
2022-10-11T01:38:13.184Z,100.00
2022-10-11T01:40:47.835Z,100.00
2022-10-11T01:43:16.179Z,100.00
2022-10-11T01:45:44.979Z,100.00
2022-10-11T01:48:14.083Z,100.00
2022-10-11T01:50:47.899Z,100.00
2022-10-11T01:53:32.569Z,100.00
2022-10-11T01:56:14.742Z,100.00
2022-10-11T01:59:01.902Z,100.00
2022-10-11T02:01:39.352Z,100.00
2022-10-11T02:04:52.708Z,100.00
2022-10-11T02:07:36.826Z,100.00
2022-10-11T02:10:21.258Z,100.00
2022-10-11T02:13:02.785Z,100.00
2022-10-11T02:15:32.959Z,100.00
2022-10-11T02:18:06.184Z,100.00
2022-10-11T02:20:34.723Z,100.00
2022-10-11T02:23:12.487Z,100.00
2022-10-11T02:25:40.588Z,100.00
2022-10-11T02:28:18.894Z,100.00
2022-10-11T02:30:50.425Z,100.00
2022-10-11T02:33:22.206Z,100.00
2022-10-11T02:35:57.587Z,100.00
2022-10-11T02:38:29.734Z,100.00
2022-10-11T02:41:37.113Z,100.00
2022-10-11T02:44:09.581Z,100.00
2022-10-11T02:46:40.850Z,100.00
2022-10-11T02:49:08.717Z,100.00
2022-10-11T02:51:36.615Z,100.00
2022-10-11T02:54:03.385Z,100.00
2022-10-11T02:56:30.108Z,100.00
2022-10-11T02:58:56.805Z,100.00
2022-10-11T03:01:23.759Z,100.00
2022-10-11T03:03:50.937Z,100.00
2022-10-11T03:06:17.727Z,100.00
2022-10-11T03:08:44.554Z,100.00
2022-10-11T03:11:11.200Z,100.00
2022-10-11T03:13:37.842Z,100.00
2022-10-11T03:16:04.685Z,100.00
2022-10-11T03:18:34.752Z,100.00
2022-10-11T03:21:01.473Z,100.00
2022-10-11T03:23:28.196Z,100.00
2022-10-11T03:25:54.980Z,100.00
2022-10-11T03:28:21.989Z,100.00
2022-10-11T03:30:49.867Z,100.00
2022-10-11T03:33:17.401Z,100.00
2022-10-11T03:35:45.925Z,100.00
2022-10-11T03:38:14.898Z,100.00
2022-10-11T03:40:43.100Z,100.00
2022-10-11T03:43:10.582Z,100.00
2022-10-11T03:45:37.616Z,100.00
2022-10-11T03:48:04.873Z,100.00
2022-10-11T03:50:31.825Z,100.00
2022-10-11T03:52:58.564Z,100.00
2022-10-11T03:55:25.307Z,100.00
2022-10-11T03:57:51.955Z,100.00
2022-10-11T04:00:21.203Z,100.00
2022-10-11T04:02:47.934Z,100.00
2022-10-11T04:05:14.693Z,100.00
2022-10-11T04:07:43.711Z,100.00
2022-10-11T04:10:16.259Z,100.00
2022-10-11T04:12:42.908Z,100.00
2022-10-11T04:15:13.419Z,100.00
2022-10-11T04:17:41.119Z,100.00
2022-10-11T04:20:08.441Z,100.00
2022-10-11T04:22:35.090Z,100.00
2022-10-11T04:25:01.764Z,100.00
2022-10-11T04:27:29.293Z,100.00
2022-10-11T04:29:56.385Z,100.00
2022-10-11T04:32:23.365Z,100.00
2022-10-11T04:34:50.210Z,100.00
2022-10-11T04:37:20.461Z,100.00
2022-10-11T04:39:47.207Z,100.00
2022-10-11T04:42:14.014Z,100.00
2022-10-11T04:44:42.955Z,100.00
2022-10-11T04:47:09.740Z,100.00
2022-10-11T04:49:36.691Z,100.00
2022-10-11T04:52:03.668Z,100.00
2022-10-11T04:54:30.406Z,100.00
2022-10-11T04:56:57.037Z,100.00
2022-10-11T04:59:23.934Z,100.00
2022-10-11T05:01:50.649Z,100.00
2022-10-11T05:04:20.150Z,100.00
2022-10-11T05:06:47.100Z,100.00
2022-10-11T05:09:13.963Z,100.00
2022-10-11T05:11:40.913Z,100.00
2022-10-11T05:14:07.737Z,100.00
2022-10-11T05:16:38.502Z,100.00
2022-10-11T05:19:05.384Z,100.00
2022-10-11T05:21:32.455Z,100.00
2022-10-11T05:23:59.335Z,100.00
2022-10-11T05:26:28.198Z,100.00
2022-10-11T05:28:55.263Z,100.00
2022-10-11T05:31:22.558Z,100.00
2022-10-11T05:33:49.648Z,100.00
2022-10-11T05:36:16.798Z,100.00
2022-10-11T05:38:44.051Z,100.00
2022-10-11T05:41:14.139Z,100.00
2022-10-11T05:43:41.150Z,100.00
2022-10-11T05:46:08.730Z,100.00
2022-10-11T05:48:35.807Z,100.00
2022-10-11T05:51:05.335Z,100.00
2022-10-11T05:53:32.867Z,100.00
2022-10-11T05:55:59.891Z,100.00
2022-10-11T05:58:27.374Z,100.00
2022-10-11T06:00:54.936Z,100.00
2022-10-11T06:03:21.845Z,100.00
2022-10-11T06:05:52.115Z,100.00
2022-10-11T06:08:21.313Z,100.00
2022-10-11T06:10:48.083Z,100.00
2022-10-11T06:13:14.805Z,100.00
2022-10-11T06:15:41.705Z,100.00
2022-10-11T06:18:08.563Z,100.00
2022-10-11T06:20:35.559Z,100.00
2022-10-11T06:23:03.242Z,100.00
2022-10-11T06:25:30.120Z,100.00
2022-10-11T06:28:00.038Z,100.00
2022-10-11T06:30:26.911Z,100.00
2022-10-11T06:32:53.715Z,100.00
2022-10-11T06:35:20.679Z,100.00
2022-10-11T06:37:47.648Z,100.00
2022-10-11T06:40:14.383Z,100.00
2022-10-11T06:42:41.241Z,100.00
2022-10-11T06:45:08.494Z,100.00
2022-10-11T06:47:35.534Z,100.00
2022-10-11T06:50:02.480Z,100.00
2022-10-11T06:52:29.277Z,100.00
2022-10-11T06:54:56.040Z,100.00
2022-10-11T06:57:22.846Z,100.00
2022-10-11T06:59:50.063Z,100.00
2022-10-11T07:02:16.700Z,100.00
2022-10-11T07:04:43.318Z,100.00
2022-10-11T07:07:13.631Z,100.00
2022-10-11T07:09:40.673Z,100.00
2022-10-11T07:12:10.513Z,100.00
2022-10-11T07:14:37.137Z,100.00
2022-10-11T07:17:03.810Z,100.00
2022-10-11T07:19:30.492Z,100.00
2022-10-11T07:21:57.355Z,100.00
2022-10-11T07:24:24.009Z,100.00
2022-10-11T07:26:52.153Z,100.00
2022-10-11T07:29:19.069Z,100.00
2022-10-11T07:31:45.675Z,100.00
2022-10-11T07:34:12.793Z,100.00
2022-10-11T07:36:39.550Z,100.00
2022-10-11T07:39:07.520Z,100.00
2022-10-11T07:41:34.961Z,100.00
2022-10-11T07:44:01.636Z,100.00
2022-10-11T07:46:28.208Z,100.00
2022-10-11T07:48:54.836Z,100.00
2022-10-11T07:51:23.248Z,100.00
2022-10-11T07:53:55.632Z,100.00
2022-10-11T07:56:27.375Z,100.00
2022-10-11T07:58:57.258Z,100.00
2022-10-11T08:01:25.165Z,100.00
2022-10-11T08:03:53.051Z,100.00
2022-10-11T08:06:23.174Z,100.00
2022-10-11T08:08:49.798Z,100.00
2022-10-11T08:11:27.040Z,100.00
2022-10-11T08:13:54.118Z,100.00
2022-10-11T08:16:21.036Z,99.77
2022-10-11T08:18:47.808Z,95.82
2022-10-11T08:21:16.107Z,95.89
2022-10-11T08:23:43.011Z,95.58
2022-10-11T08:26:10.030Z,95.04
2022-10-11T08:28:37.040Z,94.15
2022-10-11T08:31:04.273Z,94.07
2022-10-11T08:33:31.226Z,92.96
2022-10-11T08:35:58.514Z,91.84
2022-10-11T08:38:25.388Z,90.92
2022-10-11T08:40:57.948Z,89.77
2022-10-11T08:43:33.526Z,89.48
2022-10-11T08:46:03.522Z,90.16
2022-10-11T08:48:36.822Z,89.04
2022-10-11T08:51:13.840Z,87.63
2022-10-11T08:53:51.796Z,86.45
2022-10-11T08:56:20.634Z,87.97
2022-10-11T08:58:54.606Z,85.34
2022-10-11T09:01:24.983Z,84.60
2022-10-11T09:03:52.222Z,85.63
2022-10-11T09:06:45.815Z,85.02
2022-10-11T09:09:19.141Z,83.49
2022-10-11T09:12:07.301Z,83.57
2022-10-11T09:14:49.033Z,83.57
2022-10-11T09:17:51.079Z,84.38
2022-10-11T09:20:34.217Z,83.90
2022-10-11T09:23:21.652Z,81.18
2022-10-11T09:26:10.695Z,81.39
2022-10-11T09:28:43.073Z,81.75
2022-10-11T09:31:11.883Z,79.49
2022-10-11T09:33:44.084Z,76.35
2022-10-11T09:36:47.005Z,79.22
2022-10-11T09:39:35.541Z,77.79
2022-10-11T09:42:03.134Z,79.67
2022-10-11T09:44:34.152Z,75.94
2022-10-11T09:47:00.820Z,76.15
2022-10-11T09:49:42.761Z,75.00
2022-10-11T09:52:18.940Z,74.65
2022-10-11T09:54:48.835Z,76.73
2022-10-11T09:57:37.465Z,73.06
2022-10-11T10:00:19.102Z,73.57
2022-10-11T10:02:48.956Z,72.06
2022-10-11T10:05:23.718Z,72.56
2022-10-11T10:08:24.344Z,69.22
2022-10-11T10:10:59.502Z,69.19
2022-10-11T10:13:46.321Z,67.06
2022-10-11T10:16:33.634Z,67.67
2022-10-11T10:19:04.959Z,69.31
2022-10-11T10:21:38.216Z,69.84
2022-10-11T10:24:34.455Z,66.23
2022-10-11T10:27:18.872Z,66.63
2022-10-11T10:30:02.574Z,62.84
2022-10-11T10:32:36.307Z,65.24
2022-10-11T10:35:24.551Z,67.06
2022-10-11T10:38:15.428Z,66.31
2022-10-11T10:40:50.978Z,65.66
2022-10-11T10:43:21.007Z,64.45
2022-10-11T10:46:01.107Z,66.22
2022-10-11T10:49:01.989Z,64.56
2022-10-11T10:51:33.269Z,66.47
2022-10-11T10:54:09.465Z,65.50
2022-10-11T10:56:50.007Z,64.35
2022-10-11T10:59:54.826Z,64.84
2022-10-11T11:02:41.270Z,64.15
2022-10-11T11:05:14.304Z,66.52
2022-10-11T11:07:51.110Z,65.88
2022-10-11T11:10:23.044Z,64.53
2022-10-11T11:13:17.747Z,67.44
2022-10-11T11:15:56.012Z,65.83
2022-10-11T11:18:43.593Z,63.67
2022-10-11T11:21:41.497Z,62.65
2022-10-11T11:24:11.343Z,63.02
2022-10-11T11:26:55.877Z,59.86
2022-10-11T11:29:43.687Z,60.67
2022-10-11T11:32:55.311Z,61.01
2022-10-11T11:35:37.005Z,61.01
2022-10-11T11:38:29.260Z,63.01
2022-10-11T11:41:02.266Z,60.27
2022-10-11T11:43:40.214Z,58.63
2022-10-11T11:46:17.629Z,60.78
2022-10-11T11:48:44.721Z,60.25
2022-10-11T11:51:18.704Z,61.13
2022-10-11T11:53:59.183Z,60.76
2022-10-11T11:57:03.227Z,60.65
2022-10-11T11:59:48.430Z,61.55
2022-10-11T12:02:50.531Z,59.14
2022-10-11T12:05:24.096Z,60.61
2022-10-11T12:08:00.973Z,57.65
2022-10-11T12:10:53.590Z,56.25
2022-10-11T12:13:37.870Z,57.47
2022-10-11T12:16:18.404Z,57.61
2022-10-11T12:18:51.020Z,56.56
2022-10-11T12:21:17.628Z,56.50
2022-10-11T12:24:24.703Z,57.85
2022-10-11T12:26:57.136Z,57.43
2022-10-11T12:29:38.584Z,57.64
2022-10-11T12:32:05.150Z,59.96
2022-10-11T12:34:35.074Z,60.52
2022-10-11T12:37:20.156Z,59.95
2022-10-11T12:39:57.374Z,59.96
2022-10-11T12:42:25.846Z,60.49
2022-10-11T12:45:10.912Z,58.95
2022-10-11T12:47:37.535Z,57.80
2022-10-11T12:50:15.355Z,59.63
2022-10-11T12:52:54.556Z,61.51
2022-10-11T12:55:36.111Z,63.22
2022-10-11T12:58:29.513Z,63.92
2022-10-11T13:00:57.902Z,63.95
2022-10-11T13:03:42.348Z,63.96
2022-10-11T13:06:25.068Z,63.71
2022-10-11T13:08:57.163Z,65.48
2022-10-11T13:11:27.900Z,66.82
2022-10-11T13:13:57.984Z,66.68
2022-10-11T13:16:28.255Z,67.63
2022-10-11T13:18:58.941Z,66.89
2022-10-11T13:21:32.422Z,68.71
2022-10-11T13:24:09.679Z,65.54
2022-10-11T13:26:36.547Z,66.15
2022-10-11T13:29:03.876Z,63.13
2022-10-11T13:31:30.602Z,63.51
2022-10-11T13:33:59.243Z,61.84
2022-10-11T13:36:27.353Z,61.99
2022-10-11T13:38:57.844Z,60.05
2022-10-11T13:41:27.476Z,58.83
2022-10-11T13:43:56.077Z,57.70
2022-10-11T13:46:25.574Z,57.24
2022-10-11T13:49:04.791Z,57.56
2022-10-11T13:51:37.611Z,57.95
2022-10-11T13:54:13.638Z,54.85
2022-10-11T13:56:48.133Z,54.70
2022-10-11T13:59:22.788Z,56.97
2022-10-11T14:01:59.340Z,55.99
2022-10-11T14:04:29.561Z,57.67
2022-10-11T14:07:02.787Z,58.17
2022-10-11T14:09:31.313Z,59.07
2022-10-11T14:12:25.987Z,57.48
2022-10-11T14:14:52.934Z,59.05
2022-10-11T14:17:22.489Z,60.12
2022-10-11T14:20:14.648Z,60.67
2022-10-11T14:22:41.290Z,60.68
2022-10-11T14:25:07.947Z,62.03
2022-10-11T14:27:34.878Z,61.88
2022-10-11T14:30:27.421Z,62.52
2022-10-11T14:32:50.273Z,61.90
2022-10-11T14:35:20.734Z,62.98
2022-10-11T14:37:47.381Z,60.27
2022-10-11T14:40:17.862Z,61.30
2022-10-11T14:42:44.458Z,61.57
2022-10-11T14:45:11.630Z,62.69
2022-10-11T14:47:42.990Z,60.26
2022-10-11T14:50:34.602Z,61.49
2022-10-11T14:53:01.471Z,66.33
2022-10-11T14:55:29.447Z,61.17
2022-10-11T14:57:56.632Z,61.94
2022-10-11T15:00:26.911Z,64.11
2022-10-11T15:02:54.464Z,64.28
2022-10-11T15:05:22.807Z,64.32
2022-10-11T15:07:49.985Z,67.96
2022-10-11T15:10:22.183Z,66.92
2022-10-11T15:12:50.692Z,66.86
2022-10-11T15:15:21.128Z,65.95
2022-10-11T15:17:53.550Z,67.83
2022-10-11T15:20:27.766Z,69.40
2022-10-11T15:22:55.676Z,71.78
2022-10-11T15:25:23.413Z,69.90
2022-10-11T15:27:51.400Z,71.84
2022-10-11T15:30:25.473Z,74.00
2022-10-11T15:32:52.216Z,74.52
2022-10-11T15:35:20.141Z,75.46
2022-10-11T15:37:46.988Z,76.73
2022-10-11T15:40:25.886Z,75.01
2022-10-11T15:42:54.623Z,75.46
2022-10-11T15:45:22.966Z,79.40
2022-10-11T15:47:49.925Z,79.40
2022-10-11T15:50:33.914Z,82.80
2022-10-11T15:53:05.641Z,85.98
2022-10-11T15:55:34.185Z,88.67
2022-10-11T15:58:01.803Z,90.29
2022-10-11T16:00:29.075Z,92.11
2022-10-11T16:02:57.264Z,97.63
2022-10-11T16:05:26.355Z,95.23
2022-10-11T16:07:54.315Z,95.59
2022-10-11T16:10:21.665Z,96.92
2022-10-11T16:12:48.654Z,98.75
2022-10-11T16:15:15.886Z,100.00
2022-10-11T16:17:42.632Z,100.00
2022-10-11T16:20:09.404Z,100.00
2022-10-11T16:22:36.716Z,100.00
2022-10-11T16:25:04.732Z,100.00
2022-10-11T16:27:32.389Z,100.00
2022-10-11T16:30:00.322Z,100.00
2022-10-11T16:32:28.092Z,100.00
2022-10-11T16:34:54.860Z,100.00
2022-10-11T16:37:21.432Z,100.00
2022-10-11T16:39:48.060Z,100.00
2022-10-11T16:42:14.644Z,100.00
2022-10-11T16:44:41.241Z,100.00
2022-10-11T16:47:07.921Z,100.00
2022-10-11T16:49:34.900Z,100.00
2022-10-11T16:52:03.908Z,100.00
2022-10-11T16:54:32.259Z,100.00
2022-10-11T16:56:59.974Z,100.00
2022-10-11T16:59:27.126Z,100.00
2022-10-11T17:01:53.996Z,100.00
2022-10-11T17:04:20.820Z,100.00
2022-10-11T17:06:47.471Z,100.00
2022-10-11T17:09:14.136Z,100.00
2022-10-11T17:11:41.197Z,100.00
2022-10-11T17:14:08.876Z,100.00
2022-10-11T17:16:35.776Z,100.00
2022-10-11T17:19:02.577Z,100.00
2022-10-11T17:21:29.410Z,100.00
2022-10-11T17:23:56.313Z,100.00
2022-10-11T17:26:26.332Z,100.00
2022-10-11T17:28:58.218Z,100.00
2022-10-11T17:31:25.497Z,100.00
2022-10-11T17:33:53.297Z,100.00
2022-10-11T17:36:24.213Z,100.00
2022-10-11T17:38:52.930Z,100.00
2022-10-11T17:41:20.909Z,100.00
2022-10-11T17:43:48.245Z,100.00
2022-10-11T17:46:16.492Z,100.00
2022-10-11T17:48:44.608Z,100.00
2022-10-11T17:51:37.641Z,100.00
2022-10-11T17:54:06.129Z,100.00
2022-10-11T17:56:37.601Z,100.00
2022-10-11T17:59:04.932Z,100.00
2022-10-11T18:01:31.714Z,100.00
2022-10-11T18:04:01.264Z,100.00
2022-10-11T18:06:30.153Z,100.00
2022-10-11T18:09:00.470Z,100.00
2022-10-11T18:11:27.140Z,100.00
2022-10-11T18:13:53.889Z,100.00
2022-10-11T18:16:23.024Z,100.00
2022-10-11T18:18:49.868Z,100.00
2022-10-11T18:21:18.397Z,100.00
2022-10-11T18:23:45.636Z,100.00
2022-10-11T18:26:17.577Z,100.00
2022-10-11T18:28:45.954Z,100.00
2022-10-11T18:31:19.114Z,100.00
2022-10-11T18:33:46.693Z,100.00
2022-10-11T18:36:16.375Z,100.00
2022-10-11T18:38:46.565Z,100.00
2022-10-11T18:41:17.987Z,100.00
2022-10-11T18:43:49.291Z,100.00
2022-10-11T18:46:16.705Z,100.00
2022-10-11T18:48:45.440Z,100.00
2022-10-11T18:51:20.308Z,100.00
2022-10-11T18:53:47.967Z,100.00
2022-10-11T18:56:16.924Z,100.00
2022-10-11T18:58:44.808Z,100.00
2022-10-11T19:01:17.502Z,100.00
2022-10-11T19:03:46.992Z,100.00
2022-10-11T19:06:18.281Z,100.00
2022-10-11T19:08:50.169Z,100.00
2022-10-11T19:11:19.697Z,100.00
2022-10-11T19:13:46.292Z,100.00
2022-10-11T19:16:16.166Z,100.00
2022-10-11T19:18:44.548Z,100.00
2022-10-11T19:21:13.072Z,100.00
2022-10-11T19:23:42.599Z,100.00
2022-10-11T19:26:15.155Z,100.00
2022-10-11T19:28:42.509Z,100.00
2022-10-11T19:31:13.044Z,100.00
2022-10-11T19:33:52.868Z,100.00
2022-10-11T19:36:25.385Z,100.00
2022-10-11T19:38:56.605Z,100.00
2022-10-11T19:41:25.109Z,100.00
2022-10-11T19:43:52.316Z,100.00
2022-10-11T19:46:44.551Z,100.00
2022-10-11T19:49:08.569Z,100.00
2022-10-11T19:51:35.950Z,100.00
2022-10-11T19:54:06.018Z,100.00
2022-10-11T19:56:33.841Z,100.00
2022-10-11T19:59:01.601Z,100.00
2022-10-11T20:01:52.946Z,100.00
2022-10-11T20:04:51.198Z,100.00
2022-10-11T20:07:07.527Z,100.00
2022-10-11T20:09:34.141Z,100.00
2022-10-11T20:12:00.853Z,100.00
2022-10-11T20:14:27.499Z,100.00
2022-10-11T20:16:54.153Z,100.00
2022-10-11T20:19:25.029Z,100.00
2022-10-11T20:21:53.342Z,100.00
2022-10-11T20:24:19.931Z,100.00
2022-10-11T20:26:52.893Z,100.00
2022-10-11T20:29:20.110Z,100.00
2022-10-11T20:31:46.730Z,100.00
2022-10-11T20:34:13.549Z,100.00
2022-10-11T20:36:48.874Z,100.00
2022-10-11T20:39:16.026Z,100.00
2022-10-11T20:41:42.995Z,100.00
2022-10-11T20:44:09.845Z,100.00
2022-10-11T20:46:38.996Z,100.00
2022-10-11T20:49:09.061Z,100.00
2022-10-11T20:51:37.417Z,100.00
2022-10-11T20:54:05.001Z,100.00
2022-10-11T20:56:56.163Z,100.00
2022-10-11T20:59:22.888Z,100.00
2022-10-11T21:01:49.523Z,100.00
2022-10-11T21:04:19.408Z,100.00
2022-10-11T21:06:48.435Z,100.00
2022-10-11T21:09:17.034Z,100.00
2022-10-11T21:11:44.065Z,100.00
2022-10-11T21:14:10.730Z,100.00
2022-10-11T21:16:37.489Z,100.00
2022-10-11T21:19:04.190Z,100.00
2022-10-11T21:21:31.001Z,100.00
2022-10-11T21:24:02.066Z,100.00
2022-10-11T21:26:30.023Z,100.00
2022-10-11T21:28:59.193Z,100.00
2022-10-11T21:31:31.073Z,100.00
2022-10-11T21:34:29.475Z,100.00
2022-10-11T21:37:08.243Z,100.00
2022-10-11T21:39:35.035Z,100.00
2022-10-11T21:42:01.689Z,100.00
2022-10-11T21:44:31.744Z,100.00
2022-10-11T21:47:10.878Z,100.00
2022-10-11T21:49:37.525Z,100.00
2022-10-11T21:52:18.478Z,100.00
2022-10-11T21:54:45.113Z,100.00
2022-10-11T21:57:11.793Z,100.00
2022-10-11T21:59:38.500Z,100.00
2022-10-11T22:02:05.205Z,100.00
2022-10-11T22:04:34.053Z,100.00
2022-10-11T22:07:00.688Z,100.00
2022-10-11T22:09:29.761Z,100.00
2022-10-11T22:12:03.225Z,100.00
2022-10-11T22:14:30.433Z,100.00
2022-10-11T22:16:57.205Z,100.00
2022-10-11T22:19:24.154Z,100.00
2022-10-11T22:21:51.248Z,100.00
2022-10-11T22:24:17.909Z,100.00
2022-10-11T22:26:44.607Z,100.00
2022-10-11T22:29:11.292Z,100.00
2022-10-11T22:31:38.098Z,100.00
2022-10-11T22:34:04.725Z,100.00
2022-10-11T22:36:31.483Z,100.00
2022-10-11T22:38:58.721Z,100.00
2022-10-11T22:41:25.352Z,100.00
2022-10-11T22:43:52.381Z,100.00
2022-10-11T22:46:19.163Z,100.00
2022-10-11T22:48:45.793Z,100.00
2022-10-11T22:51:12.437Z,100.00
2022-10-11T22:53:39.139Z,100.00
2022-10-11T22:56:06.022Z,100.00
2022-10-11T22:58:32.659Z,100.00
2022-10-11T23:01:10.406Z,100.00
2022-10-11T23:03:37.197Z,100.00
2022-10-11T23:06:04.715Z,100.00
2022-10-11T23:08:31.406Z,100.00
2022-10-11T23:11:02.967Z,100.00
2022-10-11T23:13:29.578Z,100.00
2022-10-11T23:15:56.235Z,100.00
2022-10-11T23:18:22.935Z,100.00
2022-10-11T23:20:49.512Z,100.00
2022-10-11T23:23:16.196Z,100.00
2022-10-11T23:25:42.840Z,100.00
2022-10-11T23:28:09.515Z,100.00
2022-10-11T23:30:39.436Z,100.00
2022-10-11T23:33:06.186Z,100.00
2022-10-11T23:35:34.688Z,100.00
2022-10-11T23:38:01.256Z,100.00
2022-10-11T23:40:28.303Z,100.00
2022-10-11T23:42:54.978Z,100.00
2022-10-11T23:45:21.569Z,100.00
2022-10-11T23:47:48.208Z,100.00
2022-10-11T23:50:14.982Z,100.00
2022-10-11T23:52:41.724Z,100.00
2022-10-11T23:55:08.836Z,100.00
2022-10-11T23:57:35.512Z,100.00
